Kansas City, Missouri
Traffic Map
Current Weather Conditions
Kansas City, Missouri
Clear
Clear
32°
Feels Like: 34°
Wind Chill: 32° Ceiling: Unl
Heat Index: 34° Visibility: 10mi
Dew Point: 20° Wind: 6mph
Humidity: 48% Direction: 320° (NW)
Pressure: 30.04in Gusts: 0mph
Raw Report DataKMKC 312254Z 32005KT 10SM CLR 32/20 A3004 RMK AO2 SLP163 T03220200
Traffic Incident Summary
Active as of:
Severity:
Category:
InformationThere was an issue retrieving the traffic information for this location. Please try a different location or try again shortly.
Advertisements
Track Severe Weather on mobile